DW6236 Felixstowe UK current weather conditions

sailwx.info

Wind from 004 at 2 knots gusting 4

Air temperature 15.6° C
Dewpoint 10.9° C

Last reported at 2019-Jun-18 20:00 UTC.
Time now 2019-Jun-18 20:41 UTC

Location: N 51°58' E 001°22'.
View on Google Maps.

See reports from other nearby stations

  
Tides and Currents Weather Stations Pressure Air Temp Water Temp Dewpoint Dewpoint Depression Visibility Wind Speed Wind Dir Waves Ship Positions
date/time (UTC)wind fromknots sea level pressurealtimeterstation pressurevisibilityair tempwater tempwave heightnotes
2019-Jun-18 20:00 004 2 gusting 4 15.6
2019-Jun-18 19:45 077 4 gusting 6 16.7
2019-Jun-18 19:30 067 3 gusting 6 16.1
2019-Jun-18 19:15 020 5 gusting 9 16.7
2019-Jun-18 19:00 058 5 gusting 9 16.7
2019-Jun-18 18:45 029 8 gusting 22 16.1
2019-Jun-18 18:30 026 7 gusting 13 16.7
2019-Jun-18 18:15 044 6 gusting 9 16.7
2019-Jun-18 18:00 047 6 gusting 10 17.2
2019-Jun-18 17:45 063 6 gusting 10 16.7
2019-Jun-18 17:30 039 5 gusting 9 16.7
2019-Jun-18 17:15 082 5 gusting 8 16.7
2019-Jun-18 17:00 079 5 gusting 6 16.7
2019-Jun-18 16:45 072 6 gusting 9 16.7
2019-Jun-18 16:30 091 6 gusting 8 17.2
2019-Jun-18 16:15 093 6 gusting 9 17.8
2019-Jun-18 16:00 098 5 gusting 9 18.9
2019-Jun-18 15:45 110 4 gusting 8 18.9
2019-Jun-18 15:30 098 4 gusting 7 18.3
2019-Jun-18 15:15 092 4 gusting 6 18.3
2019-Jun-18 15:00 094 4 gusting 6 18.3
2019-Jun-18 14:45 116 2 gusting 5 20.0
2019-Jun-18 14:30 145 1 gusting 3 20.0
2019-Jun-18 14:15 132 3 gusting 6 19.4
2019-Jun-18 14:00 135 3 gusting 5 20.6
2019-Jun-18 13:45 122 2 gusting 6 20.6
2019-Jun-18 13:30 121 3 gusting 6 20.6
2019-Jun-18 13:15 158 3 gusting 6 20.6
2019-Jun-18 12:45 155 2 gusting 4 21.7
2019-Jun-18 12:30 147 3 gusting 5 21.1
2019-Jun-18 12:15 179 3 gusting 6 21.1
2019-Jun-18 12:00 161 2 gusting 6 21.7
2019-Jun-18 11:45 164 3 gusting 8 21.1
2019-Jun-18 11:30 154 5 gusting 9 20.6
2019-Jun-18 11:15 149 4 gusting 7 21.1
2019-Jun-18 11:00 127 3 gusting 6 21.1
2019-Jun-18 10:45 142 4 gusting 6 20.6
2019-Jun-18 10:30 155 4 gusting 7 19.4
2019-Jun-18 10:15 147 5 gusting 8 18.9
2019-Jun-18 10:00 163 5 gusting 8 20.0
2019-Jun-18 09:45 159 5 gusting 9 20.0
2019-Jun-18 09:30 143 4 gusting 9 20.0
2019-Jun-18 09:15 172 2 gusting 5 19.4
2019-Jun-18 09:00 131 3 gusting 6 18.9
2019-Jun-18 08:45 140 3 gusting 6 19.4
2019-Jun-18 08:30 157 3 gusting 6 19.4
2019-Jun-18 08:15 163 2 gusting 5 20.0
2019-Jun-18 08:00 183 3 gusting 6 20.6
2019-Jun-18 07:45 149 3 gusting 6 18.9
2019-Jun-18 07:30 170 2 gusting 5 19.4
2019-Jun-18 07:15 144 2 gusting 4 20.0
2019-Jun-18 07:00 198 1 gusting 3 20.0
2019-Jun-18 06:45 152 1 gusting 3 21.1
2019-Jun-18 06:30 298 0 gusting 3 21.7
2019-Jun-18 06:15 192 0 gusting 2 20.0
2019-Jun-18 06:00 278 0 gusting 2 20.0
2019-Jun-18 05:45 247 0 gusting 2 17.2
2019-Jun-18 05:30 263 1 gusting 3 15.6
2019-Jun-18 05:15 270 2 gusting 5 14.4
2019-Jun-18 05:00 271 2 gusting 3 14.4
2019-Jun-18 04:45 248 1 gusting 3 13.9
2019-Jun-18 04:30 263 1 gusting 3 13.9
2019-Jun-18 04:15 271 2 gusting 4 14.4
2019-Jun-18 04:00 267 1 gusting 3 13.3
2019-Jun-18 03:45 268 1 gusting 3 12.8
2019-Jun-18 03:30 276 1 gusting 3 12.8
2019-Jun-18 03:15 270 1 gusting 3 12.8
2019-Jun-18 03:00 268 2 gusting 4 12.8
2019-Jun-18 02:45 280 2 gusting 3 13.3
2019-Jun-18 02:30 276 2 gusting 4 13.3
2019-Jun-18 02:15 241 2 gusting 4 13.3
2019-Jun-18 02:00 267 2 gusting 4 13.3
2019-Jun-18 01:45 257 3 gusting 5 13.9
2019-Jun-18 01:30 265 2 gusting 4 13.9
2019-Jun-18 01:15 266 2 gusting 4 13.9
2019-Jun-18 01:00 245 3 gusting 6 14.4
2019-Jun-18 00:45 236 3 gusting 6 14.4
2019-Jun-18 00:30 237 4 gusting 8 14.4
2019-Jun-18 00:15 257 5 gusting 7 15.0
2019-Jun-18 00:00 258 5 gusting 8 15.0
2019-Jun-17 23:45 241 5 gusting 10 15.6
2019-Jun-17 23:30 233 5 gusting 9 15.6
2019-Jun-17 23:15 227 4 gusting 9 16.1
2019-Jun-17 23:00 227 6 gusting 11 16.1
2019-Jun-17 22:45 229 4 gusting 7 16.1
2019-Jun-17 22:30 251 3 gusting 7 16.1
2019-Jun-17 22:15 211 2 gusting 6 16.1
2019-Jun-17 22:00 238 4 gusting 9 16.7
2019-Jun-17 21:45 226 3 gusting 7 16.7
2019-Jun-17 21:30 212 3 gusting 6 16.7
2019-Jun-17 21:15 239 2 gusting 4 16.7
2019-Jun-17 21:00 210 4 gusting 7 17.2
2019-Jun-17 20:45 192 2 gusting 7 17.8
2019-Jun-17 20:30 242 3 gusting 7 17.8
2019-Jun-17 20:15 174 3 gusting 9 18.3
2019-Jun-17 20:00 185 3 gusting 6 18.9
2019-Jun-17 19:45 172 1 gusting 4 19.4
2019-Jun-17 19:30 206 2 gusting 6 18.9
2019-Jun-17 19:15 221 3 gusting 8 18.9
2019-Jun-17 19:00 222 3 gusting 9 19.4
2019-Jun-17 18:45 156 4 gusting 7 19.4
2019-Jun-17 18:30 184 4 gusting 7 19.4
2019-Jun-16 23:00 191 5 gusting 11 15.6
2019-Jun-16 22:45 229 5 gusting 10 15.6
2019-Jun-16 22:30 194 6 gusting 10 15.6
2019-Jun-16 22:15 210 5 gusting 12 15.6
2019-Jun-16 22:00 195 5 gusting 12 16.1
2019-Jun-16 21:45 176 5 gusting 14 16.1
2019-Jun-16 21:30 189 6 gusting 11 16.1
2019-Jun-16 21:15 213 6 gusting 13 16.1
2019-Jun-16 21:00 221 6 gusting 11 16.7
2019-Jun-16 20:45 198 6 gusting 13 16.7
2019-Jun-16 20:30 194 6 gusting 11 16.7
2019-Jun-16 20:15 208 6 gusting 13 17.2
2019-Jun-16 20:00 212 6 gusting 13 17.8